createdAt,value
2022-08-07T00:01:43.089Z,16.91
2022-08-07T00:03:49.413Z,16.88
2022-08-07T00:06:15.897Z,16.87
2022-08-07T00:08:44.579Z,16.84
2022-08-07T00:11:11.088Z,16.80
2022-08-07T00:13:44.751Z,16.75
2022-08-07T00:16:17.402Z,16.73
2022-08-07T00:18:48.296Z,16.70
2022-08-07T00:21:55.359Z,16.67
2022-08-07T00:24:01.213Z,16.65
2022-08-07T00:26:48.710Z,16.61
2022-08-07T00:29:15.197Z,16.59
2022-08-07T00:31:42.612Z,16.59
2022-08-07T00:34:09.931Z,16.55
2022-08-07T00:36:42.605Z,16.54
2022-08-07T00:39:12.822Z,16.52
2022-08-07T00:41:53.501Z,16.49
2022-08-07T00:44:28.118Z,16.46
2022-08-07T00:46:55.342Z,16.45
2022-08-07T00:49:24.794Z,16.45
2022-08-07T00:52:09.901Z,16.43
2022-08-07T00:54:36.430Z,16.41
2022-08-07T00:57:07.300Z,16.39
2022-08-07T00:59:37.514Z,16.37
2022-08-07T01:02:14.032Z,16.34
2022-08-07T01:04:53.744Z,16.31
2022-08-07T01:07:25.117Z,16.30
2022-08-07T01:10:05.692Z,16.26
2022-08-07T01:12:34.256Z,16.24
2022-08-07T01:15:03.761Z,16.23
2022-08-07T01:17:31.568Z,16.21
2022-08-07T01:20:06.609Z,16.19
2022-08-07T01:22:36.305Z,16.16
2022-08-07T01:25:07.518Z,16.13
2022-08-07T01:27:51.333Z,16.11
2022-08-07T01:30:18.976Z,16.10
2022-08-07T01:32:47.075Z,16.08
2022-08-07T01:35:14.810Z,16.07
2022-08-07T01:37:45.662Z,16.06
2022-08-07T01:40:14.831Z,16.06
2022-08-07T01:42:58.713Z,16.04
2022-08-07T01:45:36.179Z,15.99
2022-08-07T01:48:19.277Z,15.98
2022-08-07T01:51:24.436Z,15.97
2022-08-07T01:54:09.206Z,15.95
2022-08-07T01:56:53.040Z,15.94
2022-08-07T01:59:31.143Z,15.93
2022-08-07T02:02:07.130Z,15.91
2022-08-07T02:05:06.799Z,15.90
2022-08-07T02:07:50.253Z,15.89
2022-08-07T02:10:25.139Z,15.85
2022-08-07T02:12:55.639Z,15.81
2022-08-07T02:15:31.929Z,15.80
2022-08-07T02:18:02.750Z,15.80
2022-08-07T02:20:33.091Z,15.79
2022-08-07T02:23:03.110Z,15.79
2022-08-07T02:26:26.550Z,15.77
2022-08-07T02:28:24.785Z,15.74
2022-08-07T02:30:56.303Z,15.73
2022-08-07T02:33:42.110Z,15.73
2022-08-07T02:36:29.163Z,15.73
2022-08-07T02:39:16.684Z,15.73
2022-08-07T02:41:54.839Z,15.71
2022-08-07T02:44:26.820Z,15.70
2022-08-07T02:46:56.992Z,15.67
2022-08-07T02:49:28.597Z,15.65
2022-08-07T02:52:17.368Z,15.63
2022-08-07T02:54:50.443Z,15.64
2022-08-07T02:57:23.814Z,15.62
2022-08-07T03:00:01.329Z,15.62
2022-08-07T03:02:35.525Z,15.61
2022-08-07T03:05:04.070Z,15.59
2022-08-07T03:07:58.920Z,15.55
2022-08-07T03:10:23.470Z,15.53
2022-08-07T03:12:58.383Z,15.53
2022-08-07T03:15:30.361Z,15.51
2022-08-07T03:18:17.478Z,15.48
2022-08-07T03:20:47.484Z,15.47
2022-08-07T03:23:19.348Z,15.45
2022-08-07T03:25:46.907Z,15.45
2022-08-07T03:28:37.411Z,15.45
2022-08-07T03:31:19.213Z,15.42
2022-08-07T03:34:02.314Z,15.40
2022-08-07T03:36:34.162Z,15.40
2022-08-07T03:39:07.362Z,15.40
2022-08-07T03:41:42.459Z,15.39
2022-08-07T03:44:15.342Z,15.39
2022-08-07T03:47:11.031Z,15.38
2022-08-07T03:49:30.381Z,15.36
2022-08-07T03:52:01.250Z,15.34
2022-08-07T03:54:36.508Z,15.32
2022-08-07T03:59:04.904Z,15.30
2022-08-07T04:00:04.373Z,15.27
2022-08-07T04:02:47.291Z,15.25
2022-08-07T04:05:39.663Z,15.28
2022-08-07T04:08:18.272Z,15.26
2022-08-07T04:10:54.276Z,15.25
2022-08-07T04:14:09.175Z,15.24
2022-08-07T04:16:31.282Z,15.22
2022-08-07T04:19:01.785Z,15.22
2022-08-07T04:21:33.483Z,15.21
2022-08-07T04:24:03.928Z,15.20
2022-08-07T04:26:34.150Z,15.18
2022-08-07T04:29:00.675Z,15.16
2022-08-07T04:31:39.071Z,15.16
2022-08-07T04:34:24.162Z,15.16
2022-08-07T04:36:55.044Z,15.15
2022-08-07T04:39:25.975Z,15.14
2022-08-07T04:41:53.728Z,15.14
2022-08-07T04:44:20.706Z,15.16
2022-08-07T04:47:08.668Z,15.18
2022-08-07T04:49:57.931Z,15.21
2022-08-07T04:52:50.868Z,15.21
2022-08-07T04:58:10.443Z,15.24
2022-08-07T04:59:15.833Z,15.27
2022-08-07T05:01:46.969Z,15.31
2022-08-07T05:04:26.385Z,15.33
2022-08-07T05:07:09.645Z,15.36
2022-08-07T05:10:00.915Z,15.46
2022-08-07T05:12:46.159Z,15.50
2022-08-07T05:15:26.531Z,15.52
2022-08-07T05:18:08.834Z,15.55
2022-08-07T05:20:48.052Z,15.57
2022-08-07T05:23:29.111Z,15.61
2022-08-07T05:26:13.221Z,15.64
2022-08-07T05:28:50.970Z,15.68
2022-08-07T05:31:34.694Z,15.73
2022-08-07T05:34:05.645Z,15.75
2022-08-07T05:36:42.014Z,15.77
2022-08-07T05:40:06.821Z,15.80
2022-08-07T05:42:12.375Z,15.85
2022-08-07T05:44:46.459Z,15.90
2022-08-07T05:47:20.909Z,15.95
2022-08-07T05:50:06.383Z,16.01
2022-08-07T05:52:33.194Z,16.06
2022-08-07T05:55:10.210Z,16.12
2022-08-07T05:57:42.303Z,16.17
2022-08-07T06:00:16.301Z,16.22
2022-08-07T06:02:51.621Z,16.27
2022-08-07T06:05:20.319Z,16.32
2022-08-07T06:08:13.109Z,16.37
2022-08-07T06:10:41.228Z,16.44
2022-08-07T06:13:13.554Z,16.56
2022-08-07T06:15:43.083Z,16.67
2022-08-07T06:18:17.158Z,16.79
2022-08-07T06:20:49.757Z,16.90
2022-08-07T06:24:37.791Z,16.98
2022-08-07T06:26:21.634Z,17.08
2022-08-07T06:28:57.048Z,17.12
2022-08-07T06:31:38.547Z,17.16
2022-08-07T06:34:13.819Z,17.22
2022-08-07T06:36:41.869Z,17.26
2022-08-07T06:40:13.219Z,17.29
2022-08-07T06:42:05.212Z,17.32
2022-08-07T06:44:54.622Z,17.28
2022-08-07T06:47:23.630Z,17.26
2022-08-07T06:49:58.757Z,17.28
2022-08-07T06:52:36.102Z,17.26
2022-08-07T06:55:33.209Z,17.28
2022-08-07T06:58:13.429Z,17.29
2022-08-07T07:00:53.213Z,17.32
2022-08-07T07:03:47.564Z,17.33
2022-08-07T07:06:13.321Z,17.35
2022-08-07T07:08:46.738Z,17.38
2022-08-07T07:12:08.580Z,17.35
2022-08-07T07:14:03.211Z,17.34
2022-08-07T07:16:45.247Z,17.37
2022-08-07T07:19:55.852Z,17.39
2022-08-07T07:22:35.930Z,17.40
2022-08-07T07:26:31.358Z,17.41
2022-08-07T07:28:03.177Z,17.45
2022-08-07T07:30:38.266Z,17.51
2022-08-07T07:33:07.959Z,17.53
2022-08-07T07:35:54.176Z,17.60
2022-08-07T07:38:27.353Z,17.66
2022-08-07T07:41:01.900Z,17.71
2022-08-07T07:44:14.365Z,17.78
2022-08-07T07:46:37.883Z,17.82
2022-08-07T07:49:09.341Z,17.86
2022-08-07T07:51:58.304Z,17.91
2022-08-07T07:54:26.592Z,17.97
2022-08-07T07:56:55.096Z,18.03
2022-08-07T07:59:52.293Z,18.06
2022-08-07T08:02:22.465Z,18.07
2022-08-07T08:05:02.714Z,18.12
2022-08-07T08:07:35.641Z,18.11
2022-08-07T08:10:10.816Z,18.11
2022-08-07T08:12:59.009Z,18.13
2022-08-07T08:15:29.562Z,18.14
2022-08-07T08:18:17.990Z,18.14
2022-08-07T08:20:48.090Z,18.14
2022-08-07T08:23:37.734Z,18.19
2022-08-07T08:26:25.224Z,18.26
2022-08-07T08:28:55.786Z,18.26
2022-08-07T08:31:58.969Z,18.29
2022-08-07T08:34:31.606Z,18.35
2022-08-07T08:37:00.232Z,18.43
2022-08-07T08:39:39.060Z,18.49
2022-08-07T08:42:25.997Z,18.53
2022-08-07T08:45:13.230Z,18.52
2022-08-07T08:48:04.545Z,18.52
2022-08-07T08:50:40.035Z,18.57
2022-08-07T08:53:22.430Z,18.58
2022-08-07T08:55:58.854Z,18.63
2022-08-07T08:58:47.681Z,18.71
2022-08-07T09:01:40.070Z,18.75
2022-08-07T09:04:47.480Z,18.76
2022-08-07T09:07:25.166Z,18.86
2022-08-07T09:10:11.480Z,19.02
2022-08-07T09:12:53.178Z,19.09
2022-08-07T09:16:22.882Z,19.08
2022-08-07T09:18:53.120Z,19.10
2022-08-07T09:22:09.605Z,19.08
2022-08-07T09:24:59.654Z,19.07
2022-08-07T09:29:24.366Z,19.14
2022-08-07T09:31:54.850Z,19.16
2022-08-07T09:34:28.204Z,19.11
2022-08-07T09:37:04.684Z,19.10
2022-08-07T09:39:57.744Z,19.18
2022-08-07T09:42:37.768Z,19.23
2022-08-07T09:47:51.359Z,19.17
2022-08-07T09:50:01.739Z,19.14
2022-08-07T09:52:33.477Z,19.27
2022-08-07T09:55:17.122Z,19.47
2022-08-07T09:58:08.201Z,19.57
2022-08-07T10:00:53.410Z,19.64
2022-08-07T10:04:14.143Z,19.65
2022-08-07T10:07:24.433Z,19.71
2022-08-07T10:10:06.925Z,19.75
2022-08-07T10:12:53.936Z,19.81
2022-08-07T10:15:37.902Z,19.88
2022-08-07T10:18:26.339Z,19.95
2022-08-07T10:21:19.965Z,19.96
2022-08-07T10:24:40.041Z,19.96
2022-08-07T10:27:46.168Z,20.00
2022-08-07T10:30:17.817Z,20.06
2022-08-07T10:33:20.344Z,20.12
2022-08-07T10:36:45.580Z,20.22
2022-08-07T10:39:41.183Z,20.23
2022-08-07T10:42:37.075Z,20.24
2022-08-07T10:45:45.154Z,20.26
2022-08-07T10:48:51.125Z,20.25
2022-08-07T10:52:01.672Z,20.42
2022-08-07T10:54:41.188Z,20.49
2022-08-07T10:57:34.518Z,20.56
2022-08-07T11:00:09.827Z,20.56
2022-08-07T11:03:10.896Z,20.54
2022-08-07T11:05:52.758Z,20.55
2022-08-07T11:08:54.538Z,20.59
2022-08-07T11:11:36.020Z,20.64
2022-08-07T11:14:43.693Z,20.69
2022-08-07T11:17:43.637Z,20.81
2022-08-07T11:20:24.506Z,20.91
2022-08-07T11:23:26.366Z,20.92
2022-08-07T11:26:38.471Z,20.96
2022-08-07T11:29:43.116Z,21.05
2022-08-07T11:32:31.853Z,21.05
2022-08-07T11:35:06.664Z,21.11
2022-08-07T11:38:12.659Z,21.16
2022-08-07T11:41:09.313Z,21.10
2022-08-07T11:44:12.415Z,21.02
2022-08-07T11:46:57.959Z,20.97
2022-08-07T11:50:25.760Z,20.93
2022-08-07T11:52:42.229Z,20.94
2022-08-07T11:56:13.954Z,20.98
2022-08-07T12:00:08.305Z,21.03
2022-08-07T12:02:33.457Z,20.99
2022-08-07T12:05:28.456Z,21.08
2022-08-07T12:08:34.911Z,21.14
2022-08-07T12:11:21.767Z,21.16
2022-08-07T12:13:56.931Z,21.16
2022-08-07T12:16:35.192Z,21.18
2022-08-07T12:19:24.850Z,21.30
2022-08-07T12:22:38.690Z,21.32
2022-08-07T12:26:03.309Z,21.33
2022-08-07T12:28:57.934Z,21.33
2022-08-07T12:31:53.248Z,21.38
2022-08-07T12:34:25.882Z,21.30
2022-08-07T12:36:56.275Z,21.39
2022-08-07T12:39:44.074Z,21.52
2022-08-07T12:42:15.511Z,21.64
2022-08-07T12:44:46.294Z,21.71
2022-08-07T12:47:37.439Z,21.78
2022-08-07T12:50:39.191Z,21.79
2022-08-07T12:54:03.370Z,21.80
2022-08-07T12:56:37.937Z,21.81
2022-08-07T12:59:08.315Z,21.83
2022-08-07T13:01:57.993Z,21.88
2022-08-07T13:04:49.364Z,22.02
2022-08-07T13:08:14.647Z,22.09
2022-08-07T13:10:55.913Z,22.07
2022-08-07T13:13:46.645Z,22.10
2022-08-07T13:16:25.107Z,22.13
2022-08-07T13:19:05.084Z,22.23
2022-08-07T13:22:19.306Z,22.29
2022-08-07T13:25:00.230Z,22.27
2022-08-07T13:28:11.433Z,22.31
2022-08-07T13:30:40.255Z,22.38
2022-08-07T13:34:32.661Z,22.42
2022-08-07T13:36:25.858Z,22.50
2022-08-07T13:39:05.031Z,22.54
2022-08-07T13:41:47.612Z,22.52
2022-08-07T13:44:26.197Z,22.58
2022-08-07T13:46:59.357Z,22.72
2022-08-07T13:50:35.134Z,22.77
2022-08-07T13:52:30.626Z,22.83
2022-08-07T13:55:10.999Z,22.88
2022-08-07T13:57:58.990Z,22.82
2022-08-07T14:00:50.340Z,22.75
2022-08-07T14:04:05.377Z,22.71
2022-08-07T14:06:17.573Z,22.61
2022-08-07T14:08:48.620Z,22.55
2022-08-07T14:11:22.687Z,22.48
2022-08-07T14:13:55.664Z,22.47
2022-08-07T14:16:31.572Z,22.49
2022-08-07T14:19:01.487Z,22.48
2022-08-07T14:22:01.456Z,22.53
2022-08-07T14:24:41.521Z,22.63
2022-08-07T14:27:16.220Z,22.65
2022-08-07T14:30:11.335Z,22.54
2022-08-07T14:32:47.978Z,22.55
2022-08-07T14:35:43.028Z,22.61
2022-08-07T14:38:26.741Z,22.66
2022-08-07T14:41:02.162Z,22.60
2022-08-07T14:43:59.028Z,22.55
2022-08-07T14:46:31.253Z,22.59
2022-08-07T14:49:56.836Z,22.53
2022-08-07T14:52:10.211Z,22.48
2022-08-07T14:54:42.054Z,22.44
2022-08-07T14:57:14.872Z,22.42
2022-08-07T15:00:03.474Z,22.43
2022-08-07T15:02:34.675Z,22.38
2022-08-07T15:05:03.367Z,22.33
2022-08-07T15:07:47.359Z,22.29
2022-08-07T15:10:26.068Z,22.27
2022-08-07T15:12:59.555Z,22.20
2022-08-07T15:18:35.613Z,22.23
2022-08-07T15:25:16.103Z,22.17
2022-08-07T15:26:57.197Z,22.17
2022-08-07T15:30:06.524Z,22.21
2022-08-07T15:32:39.712Z,22.24
2022-08-07T15:38:18.337Z,22.23
2022-08-07T15:43:56.333Z,22.16
2022-08-07T15:46:32.274Z,22.06
2022-08-07T15:49:13.181Z,22.00
2022-08-07T15:54:34.568Z,22.09
2022-08-07T15:57:27.873Z,22.09
2022-08-07T15:59:59.223Z,22.11
2022-08-07T16:02:30.006Z,22.12
2022-08-07T16:05:15.367Z,22.11
2022-08-07T16:08:32.379Z,22.11
2022-08-07T16:10:38.120Z,21.98
2022-08-07T16:13:59.128Z,21.93
2022-08-07T16:16:47.682Z,21.87
2022-08-07T16:19:41.908Z,21.90
2022-08-07T16:22:55.593Z,21.92
2022-08-07T16:25:54.283Z,21.87
2022-08-07T16:30:05.548Z,21.89
2022-08-07T16:31:57.960Z,21.86
2022-08-07T16:34:58.430Z,21.89
2022-08-07T16:38:09.273Z,21.97
2022-08-07T16:41:02.747Z,21.92
2022-08-07T16:44:04.056Z,21.88
2022-08-07T16:47:08.835Z,21.85
2022-08-07T16:50:37.153Z,21.91
2022-08-07T16:54:01.174Z,21.93
2022-08-07T16:56:40.043Z,21.89
2022-08-07T16:59:18.214Z,21.83
2022-08-07T17:02:03.592Z,21.76
2022-08-07T17:04:58.640Z,21.67
2022-08-07T17:07:55.099Z,21.64
2022-08-07T17:10:32.672Z,21.65
2022-08-07T17:13:41.813Z,21.71
2022-08-07T17:16:30.480Z,21.70
2022-08-07T17:18:57.801Z,21.69
2022-08-07T17:24:29.811Z,21.65
2022-08-07T17:27:06.319Z,21.63
2022-08-07T17:30:15.686Z,21.63
2022-08-07T17:32:55.845Z,21.52
2022-08-07T17:35:55.215Z,21.48
2022-08-07T17:38:34.102Z,21.46
2022-08-07T17:42:01.595Z,21.48
2022-08-07T17:44:41.443Z,21.47
2022-08-07T17:47:17.048Z,21.45
2022-08-07T17:50:14.368Z,21.41
2022-08-07T17:52:52.309Z,21.41
2022-08-07T17:56:00.617Z,21.40
2022-08-07T17:58:49.521Z,21.42
2022-08-07T18:01:27.728Z,21.44
2022-08-07T18:04:21.991Z,21.48
2022-08-07T18:07:21.080Z,21.52
2022-08-07T18:10:32.839Z,21.45
2022-08-07T18:12:59.548Z,21.38
2022-08-07T18:15:32.648Z,21.38
2022-08-07T18:18:47.449Z,21.37
2022-08-07T18:21:42.130Z,21.33
2022-08-07T18:24:33.571Z,21.29
2022-08-07T18:27:24.572Z,21.27
2022-08-07T18:30:06.991Z,21.28
2022-08-07T18:33:36.410Z,21.17
2022-08-07T18:36:33.021Z,21.20
2022-08-07T18:40:08.710Z,21.18
2022-08-07T18:42:27.873Z,21.20
2022-08-07T18:45:43.689Z,21.17
2022-08-07T18:48:02.803Z,21.14
2022-08-07T18:50:47.512Z,21.11
2022-08-07T18:53:14.598Z,21.05
2022-08-07T18:56:01.735Z,20.98
2022-08-07T18:58:54.780Z,20.96
2022-08-07T19:01:37.234Z,20.95
2022-08-07T19:04:56.274Z,20.92
2022-08-07T19:07:51.952Z,20.93
2022-08-07T19:10:31.803Z,20.86
2022-08-07T19:13:50.901Z,20.81
2022-08-07T19:16:43.215Z,20.76
2022-08-07T19:19:47.261Z,20.74
2022-08-07T19:22:31.227Z,20.71
2022-08-07T19:25:05.706Z,20.70
2022-08-07T19:28:57.179Z,20.71
2022-08-07T19:31:00.842Z,20.70
2022-08-07T19:33:18.546Z,20.69
2022-08-07T19:35:53.767Z,20.69
2022-08-07T19:38:22.603Z,20.64
2022-08-07T19:40:51.851Z,20.61
2022-08-07T19:43:48.680Z,20.55
2022-08-07T19:46:11.136Z,20.47
2022-08-07T19:48:44.207Z,20.41
2022-08-07T19:51:19.192Z,20.38
2022-08-07T19:54:33.608Z,20.33
2022-08-07T19:58:00.227Z,20.26
2022-08-07T19:59:39.875Z,20.22
2022-08-07T20:02:18.937Z,20.22
2022-08-07T20:04:49.746Z,20.22
2022-08-07T20:07:23.821Z,20.20
2022-08-07T20:10:35.062Z,20.19
2022-08-07T20:12:56.694Z,20.15
2022-08-07T20:15:33.110Z,20.15
2022-08-07T20:18:14.470Z,20.10
2022-08-07T20:20:45.419Z,20.06
2022-08-07T20:23:32.994Z,20.01
2022-08-07T20:26:09.888Z,20.00
2022-08-07T20:28:39.692Z,20.03
2022-08-07T20:31:21.360Z,20.04
2022-08-07T20:33:56.821Z,20.02
2022-08-07T20:36:27.077Z,19.99
2022-08-07T20:39:00.447Z,19.99
2022-08-07T20:41:38.423Z,19.92
2022-08-07T20:44:12.819Z,19.89
2022-08-07T20:46:43.880Z,19.89
2022-08-07T20:49:59.006Z,19.90
2022-08-07T20:52:02.026Z,19.90
2022-08-07T20:54:34.178Z,19.92
2022-08-07T20:57:08.188Z,19.88
2022-08-07T21:00:08.064Z,19.85
2022-08-07T21:02:55.526Z,19.83
2022-08-07T21:05:51.517Z,19.81
2022-08-07T21:08:37.679Z,19.75
2022-08-07T21:11:10.938Z,19.73
2022-08-07T21:14:16.744Z,19.72
2022-08-07T21:16:56.096Z,19.68
2022-08-07T21:19:31.818Z,19.68
2022-08-07T21:22:15.669Z,19.67
2022-08-07T21:25:12.220Z,19.63
2022-08-07T21:28:04.693Z,19.60
2022-08-07T21:31:11.118Z,19.62
2022-08-07T21:33:56.697Z,19.61
2022-08-07T21:36:31.225Z,19.58
2022-08-07T21:39:46.104Z,19.55
2022-08-07T21:42:42.436Z,19.49
2022-08-07T21:46:05.351Z,19.44
2022-08-07T21:48:56.562Z,19.42
2022-08-07T21:51:33.832Z,19.41
2022-08-07T21:54:33.413Z,19.41
2022-08-07T21:57:30.869Z,19.40
2022-08-07T22:00:23.100Z,19.40
2022-08-07T22:03:16.790Z,19.37
2022-08-07T22:06:29.985Z,19.34
2022-08-07T22:09:07.944Z,19.32
2022-08-07T22:12:05.275Z,19.32
2022-08-07T22:14:36.815Z,19.29
2022-08-07T22:17:07.297Z,19.24
2022-08-07T22:20:00.268Z,19.21
2022-08-07T22:22:36.784Z,19.21
2022-08-07T22:25:12.250Z,19.17
2022-08-07T22:28:19.817Z,19.17
2022-08-07T22:30:58.426Z,19.15
2022-08-07T22:33:52.781Z,19.08
2022-08-07T22:36:52.596Z,19.07
2022-08-07T22:39:52.896Z,19.08
2022-08-07T22:42:29.332Z,19.06
2022-08-07T22:45:02.458Z,19.03
2022-08-07T22:48:01.226Z,19.01
2022-08-07T22:50:59.686Z,19.00
2022-08-07T22:54:07.582Z,19.01
2022-08-07T22:56:35.929Z,19.00
2022-08-07T22:59:26.720Z,19.00
2022-08-07T23:02:13.524Z,18.98
2022-08-07T23:06:10.026Z,18.97
2022-08-07T23:07:52.847Z,18.95
2022-08-07T23:10:41.333Z,18.94
2022-08-07T23:13:29.604Z,18.92
2022-08-07T23:16:44.378Z,18.92
2022-08-07T23:19:48.393Z,18.92
2022-08-07T23:22:50.077Z,18.91
2022-08-07T23:25:56.795Z,18.87
2022-08-07T23:28:54.594Z,18.86
2022-08-07T23:32:50.122Z,18.83
2022-08-07T23:34:39.535Z,18.82
2022-08-07T23:37:34.602Z,18.81
2022-08-07T23:40:22.478Z,18.82
2022-08-07T23:43:16.756Z,18.80
2022-08-07T23:46:03.707Z,18.78
2022-08-07T23:48:47.481Z,18.77
2022-08-07T23:53:01.917Z,18.75
2022-08-07T23:54:58.135Z,18.74
2022-08-07T23:57:37.612Z,18.73
